createdAt,value
2023-05-01T00:00:53.930Z,96039.66
2023-05-01T00:03:56.115Z,96047.81
2023-05-01T00:06:58.973Z,96037.50
2023-05-01T00:10:01.005Z,96037.50
2023-05-01T00:13:02.664Z,96029.97
2023-05-01T00:16:12.614Z,96026.94
2023-05-01T00:19:18.460Z,96022.44
2023-05-01T00:22:22.126Z,96025.25
2023-05-01T00:25:24.866Z,96022.06
2023-05-01T00:28:27.088Z,96019.56
2023-05-01T00:31:31.444Z,96018.22
2023-05-01T00:34:35.279Z,96015.34
2023-05-01T00:37:37.721Z,96012.69
2023-05-01T00:40:45.145Z,96008.50
2023-05-01T00:43:47.266Z,96002.47
2023-05-01T00:46:49.775Z,96003.66
2023-05-01T00:49:55.577Z,96005.78
2023-05-01T00:52:57.980Z,96000.94
2023-05-01T00:56:03.756Z,95999.25
2023-05-01T00:59:09.234Z,95997.72
2023-05-01T01:02:12.698Z,95992.72
2023-05-01T01:05:16.458Z,95992.88
2023-05-01T01:08:41.147Z,95981.69
2023-05-01T01:12:03.730Z,95973.69
2023-05-01T01:15:35.720Z,95981.84
2023-05-01T01:18:40.909Z,95972.19
2023-05-01T01:21:47.375Z,95972.19
2023-05-01T01:25:27.577Z,95967.00
2023-05-01T01:28:52.397Z,95972.34
2023-05-01T01:32:07.553Z,95969.16
2023-05-01T01:35:19.534Z,95969.31
2023-05-01T01:38:29.473Z,95959.66
2023-05-01T01:41:34.403Z,95967.13
2023-05-01T01:44:46.000Z,95959.44
2023-05-01T01:47:49.852Z,95959.59
2023-05-01T01:50:55.158Z,95957.94
2023-05-01T01:54:00.827Z,95954.28
2023-05-01T01:57:04.552Z,95953.44
2023-05-01T02:00:11.276Z,95948.94
2023-05-01T02:03:21.759Z,95946.13
2023-05-01T02:06:25.329Z,95947.25
2023-05-01T02:09:29.745Z,95949.63
2023-05-01T02:12:34.426Z,95940.09
2023-05-01T02:15:40.709Z,95941.94
2023-05-01T02:18:45.183Z,95933.41
2023-05-01T02:21:55.989Z,95933.41
2023-05-01T02:25:00.624Z,95930.75
2023-05-01T02:28:09.348Z,95928.41
2023-05-01T02:31:14.150Z,95926.44
2023-05-01T02:34:16.875Z,95921.09
2023-05-01T02:37:18.523Z,95934.41
2023-05-01T02:40:22.091Z,95924.75
2023-05-01T02:43:30.032Z,95920.56
2023-05-01T02:46:35.341Z,95919.03
2023-05-01T02:49:38.352Z,95911.22
2023-05-01T02:52:44.030Z,95900.72
2023-05-01T02:56:16.365Z,95910.53
2023-05-01T02:59:18.404Z,95907.19
2023-05-01T03:02:21.210Z,95911.81
2023-05-01T03:05:23.038Z,95905.84
2023-05-01T03:08:25.341Z,95907.66
2023-05-01T03:11:27.410Z,95911.31
2023-05-01T03:14:29.466Z,95901.66
2023-05-01T03:17:31.543Z,95902.97
2023-05-01T03:20:34.203Z,95903.97
2023-05-01T03:23:38.706Z,95892.78
2023-05-01T03:26:41.694Z,95889.59
2023-05-01T03:29:43.249Z,95891.28
2023-05-01T03:32:45.762Z,95886.25
2023-05-01T03:36:07.303Z,95889.91
2023-05-01T03:39:09.967Z,95884.06
2023-05-01T03:42:30.031Z,95882.53
2023-05-01T03:45:39.048Z,95885.31
2023-05-01T03:48:42.774Z,95888.31
2023-05-01T03:51:46.122Z,95874.63
2023-05-01T03:54:49.958Z,95887.91
2023-05-01T03:58:02.068Z,95887.25
2023-05-01T04:01:04.358Z,95886.72
2023-05-01T04:04:08.065Z,95877.38
2023-05-01T04:07:13.058Z,95874.88
2023-05-01T04:10:17.558Z,95873.19
2023-05-01T04:13:27.810Z,95877.69
2023-05-01T04:16:31.815Z,95878.38
2023-05-01T04:19:34.842Z,95876.41
2023-05-01T04:22:39.467Z,95878.03
2023-05-01T04:25:43.169Z,95884.06
2023-05-01T04:28:50.968Z,95880.41
2023-05-01T04:31:59.811Z,95883.75
2023-05-01T04:35:05.003Z,95882.78
2023-05-01T04:38:08.810Z,95879.78
2023-05-01T04:41:11.465Z,95883.81
2023-05-01T04:44:15.511Z,95888.13
2023-05-01T04:47:17.620Z,95885.66
2023-05-01T04:50:20.290Z,95884.22
2023-05-01T04:53:22.116Z,95889.22
2023-05-01T04:56:26.969Z,95877.75
2023-05-01T04:59:34.669Z,95886.09
2023-05-01T05:02:37.281Z,95877.28
2023-05-01T05:05:41.677Z,95877.78
2023-05-01T05:08:44.144Z,95881.13
2023-05-01T05:11:46.437Z,95888.13
2023-05-01T05:14:55.455Z,95890.50
2023-05-01T05:17:59.121Z,95891.00
2023-05-01T05:21:10.645Z,95893.50
2023-05-01T05:24:16.715Z,95890.53
2023-05-01T05:27:20.927Z,95895.38
2023-05-01T05:30:23.009Z,95901.91
2023-05-01T05:33:25.305Z,95897.94
2023-05-01T05:36:27.823Z,95903.78
2023-05-01T05:39:34.332Z,95895.50
2023-05-01T05:42:36.287Z,95889.97
2023-05-01T05:45:41.614Z,95904.81
2023-05-01T05:48:43.512Z,95892.50
2023-05-01T05:51:46.613Z,95895.84
2023-05-01T05:54:49.030Z,95901.66
2023-05-01T05:57:54.429Z,95896.19
2023-05-01T06:00:56.158Z,95898.56
2023-05-01T06:03:59.583Z,95900.03
2023-05-01T06:07:03.801Z,95899.72
2023-05-01T06:10:06.124Z,95896.06
2023-05-01T06:13:14.097Z,95886.09
2023-05-01T06:16:21.869Z,95886.75
2023-05-01T06:19:23.579Z,95891.94
2023-05-01T06:22:30.673Z,95887.44
2023-05-01T06:25:42.853Z,95892.47
2023-05-01T06:28:45.253Z,95889.59
2023-05-01T06:31:47.587Z,95887.78
2023-05-01T06:34:49.987Z,95893.78
2023-05-01T06:37:51.740Z,95888.31
2023-05-01T06:40:53.928Z,95897.28
2023-05-01T06:44:06.718Z,95888.63
2023-05-01T06:47:08.507Z,95889.16
2023-05-01T06:50:10.654Z,95896.31
2023-05-01T06:53:12.721Z,95901.16
2023-05-01T06:56:16.847Z,95900.31
2023-05-01T06:59:19.228Z,95896.16
2023-05-01T07:02:21.288Z,95903.66
2023-05-01T07:05:23.477Z,95904.66
2023-05-01T07:08:30.653Z,95905.19
2023-05-01T07:11:32.920Z,95903.16
2023-05-01T07:14:35.872Z,95912.69
2023-05-01T07:17:38.291Z,95910.69
2023-05-01T07:20:41.958Z,95912.19
2023-05-01T07:23:43.774Z,95902.34
2023-05-01T07:26:45.824Z,95903.19
2023-05-01T07:29:48.131Z,95904.88
2023-05-01T07:32:51.264Z,95904.38
2023-05-01T07:35:56.437Z,95894.53
2023-05-01T07:38:59.650Z,95896.22
2023-05-01T07:42:04.566Z,95900.88
2023-05-01T07:45:07.873Z,95908.06
2023-05-01T07:48:10.261Z,95907.22
2023-05-01T07:51:14.048Z,95905.56
2023-05-01T07:54:16.995Z,95912.59
2023-05-01T07:57:20.847Z,95908.91
2023-05-01T08:00:23.323Z,95910.09
2023-05-01T08:03:25.256Z,95906.94
2023-05-01T08:06:30.612Z,95911.78
2023-05-01T08:09:32.727Z,95910.13
2023-05-01T08:12:35.920Z,95913.16
2023-05-01T08:15:39.227Z,95918.81
2023-05-01T08:18:40.861Z,95923.00
2023-05-01T08:21:43.642Z,95921.66
2023-05-01T08:24:46.346Z,95924.66
2023-05-01T08:27:49.423Z,95927.03
2023-05-01T08:30:52.630Z,95923.84
2023-05-01T08:33:56.745Z,95922.53
2023-05-01T08:36:59.744Z,95924.38
2023-05-01T08:40:08.923Z,95927.53
2023-05-01T08:43:13.668Z,95931.03
2023-05-01T08:46:24.258Z,95926.38
2023-05-01T08:49:28.175Z,95929.72
2023-05-01T08:52:31.888Z,95934.88
2023-05-01T08:55:38.285Z,95941.72
2023-05-01T08:58:41.567Z,95933.72
2023-05-01T09:01:47.251Z,95941.41
2023-05-01T09:04:54.280Z,95940.09
2023-05-01T09:07:59.472Z,95945.44
2023-05-01T09:11:01.680Z,95949.47
2023-05-01T09:14:05.719Z,95949.13
2023-05-01T09:17:08.516Z,95948.59
2023-05-01T09:20:21.375Z,95937.44
2023-05-01T09:23:27.543Z,95941.28
2023-05-01T09:26:30.507Z,95944.09
2023-05-01T09:29:42.188Z,95943.63
2023-05-01T09:32:44.735Z,95943.44
2023-05-01T09:36:00.302Z,95953.44
2023-05-01T09:39:05.176Z,95948.09
2023-05-01T09:42:07.593Z,95950.91
2023-05-01T09:45:15.056Z,95945.25
2023-05-01T09:48:19.395Z,95943.88
2023-05-01T09:51:26.962Z,95948.56
2023-05-01T09:54:28.737Z,95959.09
2023-05-01T09:57:38.328Z,95949.06
2023-05-01T10:00:50.242Z,95948.06
2023-05-01T10:03:56.778Z,95948.38
2023-05-01T10:07:23.799Z,95952.22
2023-05-01T10:10:27.980Z,95949.88
2023-05-01T10:13:31.081Z,95951.19
2023-05-01T10:16:35.027Z,95957.03
2023-05-01T10:19:37.848Z,95954.66
2023-05-01T10:22:44.055Z,95951.47
2023-05-01T10:25:48.610Z,95959.31
2023-05-01T10:28:50.669Z,95959.16
2023-05-01T10:31:52.918Z,95963.84
2023-05-01T10:35:05.492Z,95957.47
2023-05-01T10:38:22.101Z,95952.97
2023-05-01T10:42:01.968Z,95956.97
2023-05-01T10:45:46.506Z,95953.41
2023-05-01T10:48:53.880Z,95956.06
2023-05-01T10:51:58.841Z,95949.53
2023-05-01T10:55:43.948Z,95949.69
2023-05-01T10:58:51.455Z,95944.63
2023-05-01T11:01:55.382Z,95937.09
2023-05-01T11:04:59.433Z,95936.72
2023-05-01T11:08:34.031Z,95934.38
2023-05-01T11:11:45.548Z,95931.69
2023-05-01T11:14:57.538Z,95936.91
2023-05-01T11:18:04.111Z,95930.34
2023-05-01T11:21:07.377Z,95921.31
2023-05-01T11:24:09.614Z,95928.94
2023-05-01T11:27:14.371Z,95917.53
2023-05-01T11:30:17.125Z,95915.31
2023-05-01T11:33:28.300Z,95919.31
2023-05-01T11:36:49.471Z,95923.13
2023-05-01T11:39:53.694Z,95914.38
2023-05-01T11:43:07.876Z,95903.94
2023-05-01T11:46:15.968Z,95906.09
2023-05-01T11:49:28.651Z,95904.25
2023-05-01T11:52:31.495Z,95902.69
2023-05-01T11:55:35.209Z,95901.81
2023-05-01T11:58:38.192Z,95906.25
2023-05-01T12:01:44.480Z,95901.47
2023-05-01T12:04:47.928Z,95902.03
2023-05-01T12:07:50.283Z,95900.31
2023-05-01T12:10:58.197Z,95905.59
2023-05-01T12:14:01.093Z,95907.88
2023-05-01T12:17:04.929Z,95888.75
2023-05-01T12:20:10.078Z,95897.72
2023-05-01T12:23:18.752Z,95896.63
2023-05-01T12:26:25.350Z,95897.19
2023-05-01T12:29:42.839Z,95900.19
2023-05-01T12:32:45.776Z,95897.28
2023-05-01T12:35:50.551Z,95896.44
2023-05-01T12:39:06.259Z,95893.59
2023-05-01T12:42:16.917Z,95890.16
2023-05-01T12:45:19.001Z,95888.78
2023-05-01T12:48:22.572Z,95886.94
2023-05-01T12:51:24.772Z,95881.56
2023-05-01T12:54:31.658Z,95881.66
2023-05-01T12:57:34.030Z,95875.16
2023-05-01T13:00:48.065Z,95876.50
2023-05-01T13:03:53.789Z,95870.56
2023-05-01T13:06:56.606Z,95863.41
2023-05-01T13:10:00.207Z,95867.00
2023-05-01T13:13:04.095Z,95870.59
2023-05-01T13:16:08.248Z,95870.41
2023-05-01T13:19:13.590Z,95864.47
2023-05-01T13:22:15.238Z,95859.09
2023-05-01T13:25:22.527Z,95856.09
2023-05-01T13:28:28.077Z,95862.56
2023-05-01T13:31:30.611Z,95854.75
2023-05-01T13:34:34.670Z,95859.53
2023-05-01T13:37:39.119Z,95851.28
2023-05-01T13:40:41.797Z,95856.06
2023-05-01T13:43:45.774Z,95859.88
2023-05-01T13:46:48.875Z,95864.19
2023-05-01T13:49:50.935Z,95859.28
2023-05-01T13:52:52.531Z,95861.38
2023-05-01T13:55:54.620Z,95854.50
2023-05-01T13:58:59.641Z,95856.78
2023-05-01T14:02:02.808Z,95854.69
2023-05-01T14:05:09.490Z,95856.34
2023-05-01T14:08:12.564Z,95853.19
2023-05-01T14:11:15.891Z,95854.03
2023-05-01T14:14:18.957Z,95853.66
2023-05-01T14:17:31.633Z,95856.34
2023-05-01T14:20:34.047Z,95852.66
2023-05-01T14:23:35.809Z,95856.84
2023-05-01T14:26:42.502Z,95854.28
2023-05-01T14:29:44.816Z,95856.13
2023-05-01T14:32:47.866Z,95859.03
2023-05-01T14:35:52.142Z,95859.03
2023-05-01T14:39:02.030Z,95859.41
2023-05-01T14:42:05.589Z,95854.03
2023-05-01T14:45:11.185Z,95855.69
2023-05-01T14:48:24.024Z,95852.66
2023-05-01T14:51:27.760Z,95855.94
2023-05-01T14:54:32.171Z,95863.63
2023-05-01T14:57:34.954Z,95850.97
2023-05-01T15:00:39.487Z,95857.56
2023-05-01T15:03:46.768Z,95864.00
2023-05-01T15:06:49.293Z,95860.13
2023-05-01T15:09:51.920Z,95858.78
2023-05-01T15:12:54.440Z,95854.50
2023-05-01T15:15:56.835Z,95856.78
2023-05-01T15:18:59.194Z,95863.41
2023-05-01T15:22:04.101Z,95865.25
2023-05-01T15:25:07.792Z,95863.59
2023-05-01T15:28:09.493Z,95859.66
2023-05-01T15:31:11.523Z,95866.09
2023-05-01T15:34:13.243Z,95860.31
2023-05-01T15:37:15.498Z,95863.19
2023-05-01T15:40:17.654Z,95873.56
2023-05-01T15:43:19.307Z,95864.66
2023-05-01T15:46:23.451Z,95864.66
2023-05-01T15:49:25.225Z,95852.00
2023-05-01T15:52:27.351Z,95871.06
2023-05-01T15:55:31.675Z,95866.66
2023-05-01T15:58:33.312Z,95867.31
2023-05-01T16:01:35.803Z,95867.06
2023-05-01T16:04:38.920Z,95878.00
2023-05-01T16:07:41.538Z,95872.34
2023-05-01T16:10:43.149Z,95886.81
2023-05-01T16:13:45.598Z,95889.22
2023-05-01T16:16:47.731Z,95889.34
2023-05-01T16:19:49.900Z,95884.06
2023-05-01T16:22:52.883Z,95886.59
2023-05-01T16:25:54.787Z,95883.22
2023-05-01T16:29:05.803Z,95904.44
2023-05-01T16:32:11.277Z,95903.25
2023-05-01T16:35:18.356Z,95913.28
2023-05-01T16:38:21.929Z,95907.16
2023-05-01T16:41:25.099Z,95914.97
2023-05-01T16:44:26.734Z,95909.31
2023-05-01T16:47:29.044Z,95903.66
2023-05-01T16:50:31.647Z,95910.25
2023-05-01T16:53:34.711Z,95905.81
2023-05-01T16:56:36.516Z,95909.34
2023-05-01T16:59:38.749Z,95904.50
2023-05-01T17:02:40.872Z,95910.91
2023-05-01T17:05:42.987Z,95916.00
2023-05-01T17:08:44.720Z,95916.34
2023-05-01T17:11:46.653Z,95917.53
2023-05-01T17:14:49.143Z,95916.88
2023-05-01T17:17:55.200Z,95914.94
2023-05-01T17:20:58.177Z,95930.19
2023-05-01T17:24:01.334Z,95925.00
2023-05-01T17:27:03.798Z,95921.69
2023-05-01T17:30:06.747Z,95930.75
2023-05-01T17:33:08.886Z,95929.94
2023-05-01T17:36:11.068Z,95934.44
2023-05-01T17:39:13.272Z,95927.59
2023-05-01T17:42:17.001Z,95932.34
2023-05-01T17:45:20.528Z,95933.53
2023-05-01T17:48:22.798Z,95932.22
2023-05-01T17:51:24.886Z,95935.25
2023-05-01T17:54:28.190Z,95939.97
2023-05-01T17:57:33.316Z,95947.38
2023-05-01T18:00:35.928Z,95945.06
2023-05-01T18:03:37.623Z,95970.75
2023-05-01T18:06:39.914Z,95992.22
2023-05-01T18:09:43.889Z,96003.47
2023-05-01T18:12:48.622Z,96001.56
2023-05-01T18:15:52.092Z,96005.16
2023-05-01T18:19:00.196Z,96009.38
2023-05-01T18:22:06.555Z,96005.59
2023-05-01T18:25:19.106Z,96010.81
2023-05-01T18:28:24.875Z,96008.31
2023-05-01T18:31:28.035Z,96008.34
2023-05-01T18:34:30.807Z,96010.84
2023-05-01T18:37:34.041Z,96014.06
2023-05-01T18:40:36.075Z,96021.41
2023-05-01T18:43:42.491Z,96015.91
2023-05-01T18:46:44.793Z,96023.09
2023-05-01T18:49:49.565Z,96030.94
2023-05-01T18:52:51.759Z,96032.13
2023-05-01T18:55:53.828Z,96040.66
2023-05-01T18:58:55.567Z,96038.31
2023-05-01T19:01:58.470Z,96036.66
2023-05-01T19:05:00.292Z,96044.84
2023-05-01T19:08:05.204Z,96048.50
2023-05-01T19:11:08.156Z,96048.50
2023-05-01T19:14:10.977Z,96044.00
2023-05-01T19:17:14.681Z,96047.66
2023-05-01T19:20:18.050Z,96055.19
2023-05-01T19:23:20.292Z,96053.34
2023-05-01T19:26:30.403Z,96054.38
2023-05-01T19:29:32.991Z,96058.88
2023-05-01T19:32:36.279Z,96061.56
2023-05-01T19:35:39.822Z,96067.06
2023-05-01T19:38:46.231Z,96067.06
2023-05-01T19:41:47.852Z,96069.88
2023-05-01T19:44:51.318Z,96067.22
2023-05-01T19:47:55.410Z,96064.72
2023-05-01T19:51:00.008Z,96060.88
2023-05-01T19:54:04.527Z,96051.00
2023-05-01T19:57:06.617Z,96061.69
2023-05-01T20:00:09.487Z,96061.88
2023-05-01T20:03:17.493Z,96061.88
2023-05-01T20:06:21.863Z,96068.38
2023-05-01T20:09:23.687Z,96078.91
2023-05-01T20:12:27.649Z,96088.09
2023-05-01T20:15:29.836Z,96091.63
2023-05-01T20:18:32.021Z,96082.56
2023-05-01T20:21:34.730Z,96100.44
2023-05-01T20:24:36.389Z,96100.44
2023-05-01T20:27:39.992Z,96103.13
2023-05-01T20:30:46.546Z,96104.13
2023-05-01T20:33:52.963Z,96107.66
2023-05-01T20:36:54.909Z,96113.00
2023-05-01T20:39:59.891Z,96111.31
2023-05-01T20:43:02.773Z,96115.00
2023-05-01T20:46:07.766Z,96112.47
2023-05-01T20:49:15.100Z,96123.31
2023-05-01T20:52:20.102Z,96124.16
2023-05-01T20:55:25.194Z,96119.81
2023-05-01T20:58:28.675Z,96122.31
2023-05-01T21:01:32.858Z,96127.81
2023-05-01T21:04:34.505Z,96127.19
2023-05-01T21:07:38.206Z,96122.97
2023-05-01T21:10:41.263Z,96130.84
2023-05-01T21:13:43.215Z,96129.16
2023-05-01T21:16:46.711Z,96135.34
2023-05-01T21:19:48.720Z,96131.84
2023-05-01T21:22:51.431Z,96149.88
2023-05-01T21:25:55.813Z,96142.00
2023-05-01T21:28:58.242Z,96145.84
2023-05-01T21:32:03.794Z,96148.38
2023-05-01T21:35:16.701Z,96145.84
2023-05-01T21:38:19.500Z,96151.06
2023-05-01T21:41:21.786Z,96148.38
2023-05-01T21:44:29.619Z,96149.69
2023-05-01T21:47:37.628Z,96151.50
2023-05-01T21:50:40.877Z,96149.53
2023-05-01T21:53:44.147Z,96162.03
2023-05-01T21:56:48.279Z,96168.22
2023-05-01T21:59:50.048Z,96160.72
2023-05-01T22:02:52.119Z,96164.03
2023-05-01T22:05:53.985Z,96166.72
2023-05-01T22:09:00.123Z,96162.34
2023-05-01T22:12:01.734Z,96153.50
2023-05-01T22:15:06.225Z,96164.38
2023-05-01T22:18:08.416Z,96156.00
2023-05-01T22:21:14.639Z,96155.84
2023-05-01T22:24:16.739Z,96165.00
2023-05-01T22:27:19.828Z,96164.19
2023-05-01T22:30:21.411Z,96157.47
2023-05-01T22:33:23.063Z,96172.81
2023-05-01T22:36:24.721Z,96168.31
2023-05-01T22:39:28.452Z,96167.97
2023-05-01T22:42:29.975Z,96169.81
2023-05-01T22:45:32.882Z,96165.75
2023-05-01T22:48:34.555Z,96166.91
2023-05-01T22:51:37.575Z,96170.56
2023-05-01T22:54:42.111Z,96170.56
2023-05-01T22:57:46.180Z,96169.88
2023-05-01T23:00:48.328Z,96170.22
2023-05-01T23:03:51.353Z,96167.56
2023-05-01T23:06:54.239Z,96175.56
2023-05-01T23:09:58.069Z,96174.72
2023-05-01T23:12:59.842Z,96172.38
2023-05-01T23:16:01.998Z,96178.69
2023-05-01T23:19:05.036Z,96174.19
2023-05-01T23:22:12.469Z,96180.56
2023-05-01T23:25:28.366Z,96178.19
2023-05-01T23:28:30.514Z,96182.84
2023-05-01T23:31:32.921Z,96185.66
2023-05-01T23:34:34.652Z,96181.50
2023-05-01T23:37:38.958Z,96186.00
2023-05-01T23:40:43.561Z,96181.97
2023-05-01T23:43:48.096Z,96183.81
2023-05-01T23:46:50.341Z,96184.81
2023-05-01T23:49:52.485Z,96182.59
2023-05-01T23:52:55.960Z,96173.41
2023-05-01T23:55:58.279Z,96177.75
2023-05-01T23:59:00.441Z,96178.03
